createdAt,value
2022-12-31T00:00:07.718Z,2.70
2022-12-31T00:02:34.398Z,3.27
2022-12-31T00:05:00.899Z,2.93
2022-12-31T00:07:27.396Z,2.87
2022-12-31T00:09:53.885Z,4.40
2022-12-31T00:12:20.289Z,3.30
2022-12-31T00:14:47.874Z,2.30
2022-12-31T00:17:14.373Z,1.93
2022-12-31T00:19:40.849Z,1.30
2022-12-31T00:22:07.311Z,5.50
2022-12-31T00:24:35.887Z,4.47
2022-12-31T00:27:02.473Z,6.10
2022-12-31T00:29:28.934Z,6.23
2022-12-31T00:31:55.495Z,2.80
2022-12-31T00:34:22.195Z,1.27
2022-12-31T00:36:49.021Z,1.80
2022-12-31T00:39:15.661Z,2.00
2022-12-31T00:41:44.050Z,1.30
2022-12-31T00:44:13.930Z,4.93
2022-12-31T00:49:06.064Z,8.07
2022-12-31T00:51:32.659Z,9.23
2022-12-31T00:53:59.311Z,7.83
2022-12-31T00:56:29.184Z,5.63
2022-12-31T00:58:56.521Z,3.80
2022-12-31T01:01:38.192Z,3.97
2022-12-31T01:04:11.594Z,4.43
2022-12-31T01:06:38.828Z,2.00
2022-12-31T01:09:06.784Z,2.03
2022-12-31T01:11:33.410Z,1.30
2022-12-31T01:14:14.051Z,1.50
2022-12-31T01:16:43.010Z,2.70
2022-12-31T01:19:14.632Z,1.80
2022-12-31T01:21:42.944Z,1.53
2022-12-31T01:24:11.195Z,2.33
2022-12-31T01:26:38.165Z,1.43
2022-12-31T01:29:06.106Z,1.40
2022-12-31T01:31:34.040Z,4.47
2022-12-31T01:34:00.702Z,1.03
2022-12-31T01:36:30.225Z,1.70
2022-12-31T01:38:58.823Z,1.43
2022-12-31T01:41:31.833Z,2.30
2022-12-31T01:44:13.610Z,1.07
2022-12-31T01:46:53.336Z,2.17
2022-12-31T01:49:22.450Z,3.07
2022-12-31T01:51:54.318Z,1.87
2022-12-31T01:54:25.608Z,1.70
2022-12-31T01:56:53.653Z,2.67
2022-12-31T01:59:22.705Z,1.63
2022-12-31T02:01:55.106Z,1.63
2022-12-31T02:04:24.045Z,2.60
2022-12-31T02:06:56.240Z,3.97
2022-12-31T02:09:22.804Z,1.37
2022-12-31T02:11:49.283Z,2.07
2022-12-31T02:14:20.703Z,2.87
2022-12-31T02:16:50.177Z,1.03
2022-12-31T02:20:04.522Z,2.70
2022-12-31T02:22:42.605Z,2.77
2022-12-31T02:25:32.562Z,3.50
2022-12-31T02:28:44.348Z,2.37
2022-12-31T02:31:10.755Z,8.50
2022-12-31T02:33:43.891Z,8.30
2022-12-31T02:36:18.360Z,8.50
2022-12-31T02:38:47.415Z,7.63
2022-12-31T02:41:36.056Z,6.80
2022-12-31T02:44:18.580Z,7.37
2022-12-31T02:47:11.247Z,4.07
2022-12-31T02:50:10.346Z,3.27
2022-12-31T02:52:45.756Z,3.53
2022-12-31T02:55:35.206Z,2.00
2022-12-31T02:58:22.722Z,4.37
2022-12-31T03:01:12.557Z,2.23
2022-12-31T03:03:39.939Z,2.33
2022-12-31T03:06:08.901Z,1.23
2022-12-31T03:08:55.872Z,1.50
2022-12-31T03:11:42.183Z,5.40
2022-12-31T03:14:08.621Z,1.30
2022-12-31T03:16:35.143Z,1.93
2022-12-31T03:19:20.388Z,2.77
2022-12-31T03:22:05.278Z,1.63
2022-12-31T03:24:50.226Z,5.30
2022-12-31T03:27:16.624Z,4.03
2022-12-31T03:29:43.028Z,4.97
2022-12-31T03:32:09.478Z,4.27
2022-12-31T03:34:35.922Z,3.70
2022-12-31T03:37:02.324Z,3.43
2022-12-31T03:39:28.741Z,2.40
2022-12-31T03:41:55.213Z,4.77
2022-12-31T03:44:21.859Z,5.03
2022-12-31T03:46:48.274Z,4.63
2022-12-31T03:49:14.816Z,5.60
2022-12-31T03:51:41.262Z,4.53
2022-12-31T03:54:07.789Z,4.00
2022-12-31T03:56:34.347Z,5.30
2022-12-31T03:59:00.798Z,8.97
2022-12-31T04:01:27.459Z,5.77
2022-12-31T04:03:54.099Z,6.47
2022-12-31T04:06:20.685Z,8.93
2022-12-31T04:08:47.131Z,8.53
2022-12-31T04:11:18.924Z,7.73
2022-12-31T04:13:47.271Z,7.53
2022-12-31T04:16:13.912Z,5.97
2022-12-31T04:18:40.365Z,7.00
2022-12-31T04:21:06.960Z,8.37
2022-12-31T04:23:33.442Z,7.33
2022-12-31T04:25:59.909Z,8.33
2022-12-31T04:28:26.325Z,6.87
2022-12-31T04:30:52.842Z,6.20
2022-12-31T04:33:19.308Z,5.87
2022-12-31T04:35:45.725Z,6.53
2022-12-31T04:38:12.199Z,7.80
2022-12-31T04:41:01.428Z,5.03
2022-12-31T04:43:27.885Z,5.70
2022-12-31T04:45:54.418Z,6.17
2022-12-31T04:48:20.931Z,4.50
2022-12-31T04:50:47.571Z,7.83
2022-12-31T04:53:14.035Z,7.27
2022-12-31T04:55:41.551Z,5.00
2022-12-31T04:58:08.004Z,4.93
2022-12-31T05:00:34.447Z,3.77
2022-12-31T05:03:00.959Z,3.77
2022-12-31T05:05:27.480Z,3.37
2022-12-31T05:07:53.879Z,3.43
2022-12-31T05:10:20.327Z,5.30
2022-12-31T05:12:46.745Z,4.40
2022-12-31T05:15:13.250Z,3.83
2022-12-31T05:17:39.719Z,6.53
2022-12-31T05:20:06.903Z,4.63
2022-12-31T05:22:33.383Z,3.37
2022-12-31T05:25:00.837Z,4.50
2022-12-31T05:27:28.733Z,1.87
2022-12-31T05:29:55.301Z,2.30
2022-12-31T05:32:22.009Z,1.63
2022-12-31T05:34:48.421Z,2.00
2022-12-31T05:37:14.870Z,3.47
2022-12-31T05:39:41.320Z,4.23
2022-12-31T05:42:07.726Z,1.83
2022-12-31T05:44:34.150Z,2.20
2022-12-31T05:47:00.652Z,1.73
2022-12-31T05:49:27.093Z,1.50
2022-12-31T05:51:53.630Z,3.10
2022-12-31T05:54:20.131Z,2.03
2022-12-31T05:56:46.570Z,1.87
2022-12-31T05:59:12.999Z,3.83
2022-12-31T06:01:39.563Z,1.77
2022-12-31T06:04:06.118Z,2.80
2022-12-31T06:06:32.588Z,2.00
2022-12-31T06:08:59.148Z,2.23
2022-12-31T06:11:25.627Z,1.27
2022-12-31T06:13:52.057Z,4.27
2022-12-31T06:16:18.604Z,3.93
2022-12-31T06:18:47.701Z,2.00
2022-12-31T06:21:15.909Z,1.33
2022-12-31T06:23:42.353Z,3.30
2022-12-31T06:26:09.109Z,1.83
2022-12-31T06:28:35.829Z,3.00
2022-12-31T06:31:07.592Z,2.40
2022-12-31T06:33:34.815Z,2.63
2022-12-31T06:36:04.702Z,3.63
2022-12-31T06:38:33.189Z,2.33
2022-12-31T06:41:07.123Z,2.73
2022-12-31T06:43:35.113Z,2.13
2022-12-31T06:46:06.030Z,1.60
2022-12-31T06:48:32.648Z,3.83
2022-12-31T06:51:10.625Z,1.67
2022-12-31T06:53:40.326Z,1.90
2022-12-31T06:56:14.620Z,3.83
2022-12-31T06:58:41.489Z,2.20
2022-12-31T07:01:29.812Z,2.33
2022-12-31T07:04:16.794Z,2.17
2022-12-31T07:06:51.207Z,2.07
2022-12-31T07:09:29.841Z,1.67
2022-12-31T07:12:05.097Z,2.13
2022-12-31T07:14:45.326Z,1.73
2022-12-31T07:17:51.018Z,5.23
2022-12-31T07:20:18.843Z,4.37
2022-12-31T07:22:46.655Z,3.87
2022-12-31T07:25:18.019Z,4.20
2022-12-31T07:28:20.125Z,4.93
2022-12-31T07:31:07.616Z,4.83
2022-12-31T07:33:51.797Z,3.57
2022-12-31T07:36:31.603Z,5.57
2022-12-31T07:39:03.952Z,8.23
2022-12-31T07:41:58.703Z,5.63
2022-12-31T07:44:58.417Z,4.50
2022-12-31T07:47:27.594Z,4.30
2022-12-31T07:49:55.171Z,4.33
2022-12-31T07:52:22.572Z,3.93
2022-12-31T07:54:49.241Z,6.57
2022-12-31T07:57:18.065Z,3.40
2022-12-31T08:00:04.152Z,2.93
2022-12-31T08:02:48.869Z,2.20
2022-12-31T08:05:49.169Z,2.67
2022-12-31T08:08:40.569Z,1.23
2022-12-31T08:11:19.984Z,2.67
2022-12-31T08:13:47.609Z,1.20
2022-12-31T08:16:14.616Z,2.40
2022-12-31T08:18:41.840Z,4.03
2022-12-31T08:21:30.995Z,1.07
2022-12-31T08:24:17.718Z,2.57
2022-12-31T08:27:10.050Z,1.33
2022-12-31T08:29:52.805Z,0.47
2022-12-31T08:32:30.051Z,3.80
2022-12-31T08:35:21.222Z,2.20
2022-12-31T08:37:56.707Z,5.00
2022-12-31T08:40:42.169Z,1.10
2022-12-31T08:43:28.449Z,3.30
2022-12-31T08:45:57.755Z,1.10
2022-12-31T08:48:38.631Z,2.60
2022-12-31T08:51:05.615Z,2.50
2022-12-31T08:53:32.444Z,0.87
2022-12-31T08:56:10.784Z,2.27
2022-12-31T08:58:49.564Z,1.57
2022-12-31T09:01:21.780Z,0.90
2022-12-31T09:04:01.484Z,4.67
2022-12-31T09:06:47.723Z,2.53
2022-12-31T09:09:23.384Z,1.67
2022-12-31T09:11:57.512Z,2.90
2022-12-31T09:14:42.482Z,1.70
2022-12-31T09:17:41.984Z,3.53
2022-12-31T09:20:17.731Z,2.10
2022-12-31T09:22:44.444Z,2.47
2022-12-31T09:25:16.722Z,1.50
2022-12-31T09:28:05.210Z,2.63
2022-12-31T09:30:56.685Z,1.73
2022-12-31T09:33:52.435Z,1.70
2022-12-31T09:36:28.455Z,1.47
2022-12-31T09:39:11.592Z,2.10
2022-12-31T09:41:56.259Z,4.10
2022-12-31T09:44:22.641Z,1.83
2022-12-31T09:47:23.207Z,5.33
2022-12-31T09:50:22.534Z,1.60
2022-12-31T09:53:24.455Z,3.33
2022-12-31T09:56:09.489Z,4.83
2022-12-31T09:58:45.158Z,5.17
2022-12-31T10:01:35.460Z,10.87
2022-12-31T10:04:06.891Z,2.83
2022-12-31T10:06:52.302Z,2.87
2022-12-31T10:09:32.073Z,4.13
2022-12-31T10:12:04.715Z,4.63
2022-12-31T10:14:47.389Z,5.93
2022-12-31T10:17:33.877Z,2.47
2022-12-31T10:20:31.413Z,6.53
2022-12-31T10:23:20.741Z,1.63
2022-12-31T10:26:06.201Z,4.07
2022-12-31T10:28:55.125Z,5.20
2022-12-31T10:31:40.196Z,3.13
2022-12-31T10:34:13.966Z,5.07
2022-12-31T10:37:06.204Z,2.77
2022-12-31T10:39:54.677Z,2.17
2022-12-31T10:42:39.607Z,3.70
2022-12-31T10:45:34.019Z,3.33
2022-12-31T10:48:43.286Z,8.03
2022-12-31T10:51:22.054Z,5.83
2022-12-31T10:53:57.676Z,5.30
2022-12-31T10:56:58.119Z,2.87
2022-12-31T10:59:36.670Z,4.77
2022-12-31T11:02:34.824Z,9.90
2022-12-31T11:05:39.725Z,4.73
2022-12-31T11:08:33.936Z,3.40
2022-12-31T11:11:23.720Z,3.83
2022-12-31T11:14:38.129Z,2.80
2022-12-31T11:17:24.626Z,2.20
2022-12-31T11:20:25.131Z,3.53
2022-12-31T11:23:29.248Z,4.43
2022-12-31T11:26:23.432Z,7.47
2022-12-31T11:29:08.819Z,3.63
2022-12-31T11:31:58.294Z,1.77
2022-12-31T11:34:45.709Z,4.40
2022-12-31T11:37:49.497Z,11.47
2022-12-31T11:40:34.710Z,6.80
2022-12-31T11:43:15.350Z,8.20
2022-12-31T11:46:06.181Z,6.93
2022-12-31T11:48:45.056Z,4.23
2022-12-31T11:51:36.458Z,7.37
2022-12-31T11:54:33.738Z,8.57
2022-12-31T11:57:13.033Z,4.23
2022-12-31T11:59:39.830Z,5.07
2022-12-31T12:02:25.826Z,12.77
2022-12-31T12:04:53.401Z,2.73
2022-12-31T12:07:20.806Z,4.17
2022-12-31T12:09:47.597Z,3.77
2022-12-31T12:12:15.658Z,4.53
2022-12-31T12:14:45.387Z,7.40
2022-12-31T12:17:34.285Z,4.27
2022-12-31T12:20:15.414Z,3.17
2022-12-31T12:22:50.560Z,3.47
2022-12-31T12:25:23.379Z,8.83
2022-12-31T12:27:49.932Z,2.33
2022-12-31T12:30:22.680Z,2.97
2022-12-31T12:32:58.164Z,4.70
2022-12-31T12:35:28.430Z,2.70
2022-12-31T12:38:00.471Z,4.33
2022-12-31T12:40:33.891Z,3.87
2022-12-31T12:43:02.770Z,5.30
2022-12-31T12:45:42.267Z,4.10
2022-12-31T12:48:17.294Z,6.27
2022-12-31T12:50:47.024Z,5.90
2022-12-31T12:53:31.593Z,7.00
2022-12-31T12:56:25.995Z,4.83
2022-12-31T12:59:17.393Z,8.40
2022-12-31T13:02:17.521Z,6.27
2022-12-31T13:04:50.201Z,2.33
2022-12-31T13:07:51.307Z,3.17
2022-12-31T13:10:28.662Z,4.83
2022-12-31T13:13:24.579Z,3.60
2022-12-31T13:16:10.031Z,5.93
2022-12-31T13:18:46.983Z,2.97
2022-12-31T13:21:46.475Z,5.30
2022-12-31T13:24:40.101Z,7.83
2022-12-31T13:27:18.390Z,5.13
2022-12-31T13:29:47.771Z,2.83
2022-12-31T13:32:21.763Z,11.23
2022-12-31T13:34:54.156Z,4.87
2022-12-31T13:37:27.542Z,6.67
2022-12-31T13:40:05.116Z,5.63
2022-12-31T13:42:40.498Z,4.67
2022-12-31T13:45:16.639Z,2.00
2022-12-31T13:47:52.567Z,6.97
2022-12-31T13:50:32.611Z,5.87
2022-12-31T13:53:07.101Z,2.83
2022-12-31T13:55:41.520Z,5.37
2022-12-31T13:58:37.112Z,7.30
2022-12-31T14:01:17.193Z,3.13
2022-12-31T14:03:56.797Z,8.50
2022-12-31T14:06:43.243Z,5.10
2022-12-31T14:09:17.846Z,3.30
2022-12-31T14:12:13.703Z,3.37
2022-12-31T14:14:54.763Z,4.50
2022-12-31T14:17:42.943Z,4.27
2022-12-31T14:20:22.094Z,4.13
2022-12-31T14:23:06.343Z,5.03
2022-12-31T14:25:41.479Z,5.07
2022-12-31T14:28:17.649Z,5.10
2022-12-31T14:30:47.120Z,4.97
2022-12-31T14:33:39.024Z,7.00
2022-12-31T14:36:43.052Z,6.63
2022-12-31T14:40:03.906Z,5.73
2022-12-31T14:43:01.741Z,8.80
2022-12-31T14:46:01.809Z,6.70
2022-12-31T14:48:54.753Z,11.43
2022-12-31T14:51:21.475Z,8.77
2022-12-31T14:53:56.892Z,5.23
2022-12-31T14:56:37.181Z,7.37
2022-12-31T14:59:03.932Z,4.10
2022-12-31T15:01:30.633Z,8.83
2022-12-31T15:03:58.707Z,9.50
2022-12-31T15:06:43.576Z,4.70
2022-12-31T15:09:17.848Z,4.60
2022-12-31T15:12:03.163Z,5.70
2022-12-31T15:14:54.833Z,5.70
2022-12-31T15:17:36.175Z,8.60
2022-12-31T15:20:30.791Z,5.30
2022-12-31T15:22:57.447Z,6.57
2022-12-31T15:25:40.269Z,9.43
2022-12-31T15:28:32.157Z,10.93
2022-12-31T15:31:19.091Z,6.27
2022-12-31T15:33:57.403Z,7.37
2022-12-31T15:36:27.206Z,6.17
2022-12-31T15:39:07.755Z,7.53
2022-12-31T15:42:18.805Z,5.00
2022-12-31T15:45:02.575Z,11.63
2022-12-31T15:47:35.629Z,6.37
2022-12-31T15:50:21.520Z,9.43
2022-12-31T15:52:57.986Z,6.47
2022-12-31T15:55:33.237Z,5.53
2022-12-31T15:58:05.220Z,6.37
2022-12-31T16:00:50.274Z,8.53
2022-12-31T16:03:23.288Z,14.03
2022-12-31T16:05:50.393Z,7.90
2022-12-31T16:08:21.299Z,4.27
2022-12-31T16:10:48.222Z,7.03
2022-12-31T16:13:23.998Z,6.87
2022-12-31T16:15:57.481Z,5.67
2022-12-31T16:18:24.197Z,11.40
2022-12-31T16:20:52.082Z,7.17
2022-12-31T16:23:22.797Z,8.23
2022-12-31T16:25:53.052Z,8.57
2022-12-31T16:28:22.284Z,11.63
2022-12-31T16:31:01.870Z,8.83
2022-12-31T16:33:29.007Z,16.90
2022-12-31T16:35:58.259Z,9.80
2022-12-31T16:38:36.252Z,10.10
2022-12-31T16:41:02.686Z,15.07
2022-12-31T16:43:40.768Z,7.73
2022-12-31T16:46:10.344Z,9.13
2022-12-31T16:48:37.807Z,5.80
2022-12-31T16:51:05.407Z,7.27
2022-12-31T16:53:36.661Z,7.90
2022-12-31T16:56:10.993Z,13.27
2022-12-31T16:58:41.167Z,6.87
2022-12-31T17:01:14.244Z,9.03
2022-12-31T17:03:44.808Z,6.93
2022-12-31T17:06:17.204Z,8.67
2022-12-31T17:09:04.967Z,10.63
2022-12-31T17:11:35.695Z,3.13
2022-12-31T17:14:08.236Z,5.63
2022-12-31T17:17:03.264Z,5.50
2022-12-31T17:19:48.840Z,5.90
2022-12-31T17:22:32.812Z,8.60
2022-12-31T17:25:09.346Z,7.53
2022-12-31T17:27:36.701Z,4.33
2022-12-31T17:30:23.263Z,4.70
2022-12-31T17:32:50.195Z,5.77
2022-12-31T17:35:41.898Z,6.17
2022-12-31T17:38:23.478Z,7.53
2022-12-31T17:40:53.108Z,8.90
2022-12-31T17:43:22.402Z,7.33
2022-12-31T17:45:51.369Z,4.80
2022-12-31T17:48:19.964Z,9.63
2022-12-31T17:50:54.760Z,7.40
2022-12-31T17:53:21.531Z,8.07
2022-12-31T17:55:53.561Z,6.90
2022-12-31T17:58:29.920Z,5.60
2022-12-31T18:00:57.273Z,4.90
2022-12-31T18:03:24.050Z,7.50
2022-12-31T18:05:50.563Z,7.23
2022-12-31T18:08:17.094Z,8.73
2022-12-31T18:10:44.747Z,8.03
2022-12-31T18:13:17.351Z,11.93
2022-12-31T18:15:43.834Z,6.67
2022-12-31T18:18:24.130Z,10.53
2022-12-31T18:20:54.964Z,8.10
2022-12-31T18:23:28.611Z,8.87
2022-12-31T18:25:55.060Z,6.67
2022-12-31T18:28:21.835Z,4.97
2022-12-31T18:30:48.919Z,7.50
2022-12-31T18:33:22.571Z,6.47
2022-12-31T18:36:08.348Z,7.77
2022-12-31T18:38:35.743Z,6.57
2022-12-31T18:41:02.584Z,4.97
2022-12-31T18:43:29.097Z,6.03
2022-12-31T18:45:55.884Z,9.20
2022-12-31T18:48:22.465Z,9.07
2022-12-31T18:50:49.361Z,6.87
2022-12-31T18:53:18.845Z,13.87
2022-12-31T18:55:56.507Z,6.47
2022-12-31T18:58:23.852Z,7.20
2022-12-31T19:00:51.549Z,16.60
2022-12-31T19:03:23.655Z,7.10
2022-12-31T19:05:50.953Z,4.07
2022-12-31T19:08:19.333Z,8.60
2022-12-31T19:10:46.408Z,8.80
2022-12-31T19:13:14.850Z,8.17
2022-12-31T19:15:50.123Z,4.23
2022-12-31T19:18:17.013Z,4.93
2022-12-31T19:20:43.710Z,5.90
2022-12-31T19:23:18.348Z,11.43
2022-12-31T19:25:46.538Z,3.90
2022-12-31T19:28:21.174Z,7.30
2022-12-31T19:30:47.673Z,7.97
2022-12-31T19:33:15.129Z,7.80
2022-12-31T19:35:42.330Z,5.70
2022-12-31T19:38:34.985Z,8.00
2022-12-31T19:41:02.382Z,4.30
2022-12-31T19:43:29.152Z,9.50
2022-12-31T19:45:55.867Z,11.03
2022-12-31T19:48:32.019Z,9.20
2022-12-31T19:50:59.331Z,8.67
2022-12-31T19:53:27.193Z,10.90
2022-12-31T19:55:54.127Z,5.67
2022-12-31T19:58:26.088Z,6.23
2022-12-31T20:00:58.449Z,6.27
2022-12-31T20:03:28.526Z,5.50
2022-12-31T20:06:04.437Z,6.67
2022-12-31T20:08:31.032Z,11.93
2022-12-31T20:10:58.981Z,11.37
2022-12-31T20:13:26.702Z,6.57
2022-12-31T20:15:54.207Z,7.87
2022-12-31T20:18:22.380Z,11.27
2022-12-31T20:20:55.286Z,7.33
2022-12-31T20:23:22.345Z,5.80
2022-12-31T20:25:59.457Z,8.70
2022-12-31T20:28:26.280Z,9.17
2022-12-31T20:30:52.874Z,5.80
2022-12-31T20:33:19.665Z,7.40
2022-12-31T20:35:46.239Z,7.40
2022-12-31T20:38:12.701Z,10.80
2022-12-31T20:40:44.580Z,4.90
2022-12-31T20:43:13.128Z,8.30
2022-12-31T20:45:41.255Z,6.20
2022-12-31T20:48:07.806Z,6.53
2022-12-31T20:50:34.359Z,9.13
2022-12-31T20:53:00.849Z,7.83
2022-12-31T20:55:27.525Z,5.57
2022-12-31T20:57:54.021Z,11.13
2022-12-31T21:00:20.577Z,9.33
2022-12-31T21:02:56.298Z,6.30
2022-12-31T21:05:27.139Z,4.67
2022-12-31T21:07:53.857Z,9.13
2022-12-31T21:10:20.347Z,8.10
2022-12-31T21:12:53.245Z,6.87
2022-12-31T21:15:21.622Z,9.97
2022-12-31T21:17:48.271Z,9.27
2022-12-31T21:20:14.786Z,10.63
2022-12-31T21:22:41.334Z,7.67
2022-12-31T21:25:08.044Z,16.33
2022-12-31T21:27:35.892Z,7.93
2022-12-31T21:30:18.099Z,11.03
2022-12-31T21:32:45.540Z,6.60
2022-12-31T21:35:41.630Z,7.77
2022-12-31T21:38:06.928Z,7.33
2022-12-31T21:40:33.928Z,6.03
2022-12-31T21:43:00.488Z,8.70
2022-12-31T21:45:27.133Z,8.60
2022-12-31T21:48:12.324Z,11.13
2022-12-31T21:50:38.847Z,11.97
2022-12-31T21:53:05.363Z,8.70
2022-12-31T21:55:50.540Z,7.33
2022-12-31T21:58:26.472Z,6.37
2022-12-31T22:01:13.756Z,5.73
2022-12-31T22:03:40.586Z,10.13
2022-12-31T22:06:20.776Z,7.73
2022-12-31T22:08:50.433Z,6.70
2022-12-31T22:11:18.414Z,8.40
2022-12-31T22:13:45.042Z,8.03
2022-12-31T22:16:14.004Z,7.40
2022-12-31T22:18:43.037Z,8.27
2022-12-31T22:21:27.761Z,6.77
2022-12-31T22:23:56.545Z,8.53
2022-12-31T22:26:26.112Z,5.37
2022-12-31T22:28:52.812Z,6.30
2022-12-31T22:31:22.845Z,11.87
2022-12-31T22:33:49.394Z,7.77
2022-12-31T22:36:20.739Z,4.97
2022-12-31T22:38:47.603Z,6.57
2022-12-31T22:41:19.731Z,6.00
2022-12-31T22:43:48.821Z,15.50
2022-12-31T22:46:19.514Z,8.87
2022-12-31T22:48:46.435Z,9.37
2022-12-31T22:51:14.214Z,10.90
2022-12-31T22:53:41.429Z,6.83
2022-12-31T22:56:09.436Z,9.80
2022-12-31T22:58:36.749Z,5.40
2022-12-31T23:01:19.440Z,5.97
2022-12-31T23:03:51.225Z,5.83
2022-12-31T23:06:21.311Z,17.80
2022-12-31T23:09:07.142Z,19.07
2022-12-31T23:11:35.484Z,53.27
2022-12-31T23:14:21.201Z,45.50
2022-12-31T23:17:29.194Z,37.90
2022-12-31T23:20:26.783Z,18.77
2022-12-31T23:23:11.651Z,29.73
2022-12-31T23:25:52.155Z,17.40
2022-12-31T23:28:21.988Z,18.17
2022-12-31T23:30:48.600Z,20.30
2022-12-31T23:33:20.529Z,26.70
2022-12-31T23:35:47.462Z,17.93
2022-12-31T23:38:17.908Z,21.30
2022-12-31T23:40:45.471Z,17.07
2022-12-31T23:43:20.405Z,23.47
2022-12-31T23:45:49.398Z,23.80
2022-12-31T23:48:16.264Z,27.53
2022-12-31T23:50:45.378Z,36.67
2022-12-31T23:53:18.584Z,20.60
2022-12-31T23:55:45.285Z,24.33
2022-12-31T23:58:12.026Z,18.60
